createdAt,value
2017-12-27T00:01:35.579Z,4.80
2017-12-27T00:04:08.874Z,4.80
2017-12-27T00:06:42.185Z,4.80
2017-12-27T00:09:15.346Z,4.80
2017-12-27T00:11:48.388Z,4.70
2017-12-27T00:14:21.746Z,4.70
2017-12-27T00:16:55.210Z,4.70
2017-12-27T00:19:28.242Z,4.60
2017-12-27T00:22:01.514Z,4.50
2017-12-27T00:24:34.807Z,4.50
2017-12-27T00:27:07.860Z,4.60
2017-12-27T00:32:34.667Z,4.60
2017-12-27T00:35:02.134Z,4.60
2017-12-27T00:37:29.585Z,4.50
2017-12-27T00:39:58.787Z,4.30
2017-12-27T00:42:26.335Z,4.30
2017-12-27T00:44:53.778Z,4.30
2017-12-27T00:47:21.227Z,4.40
2017-12-27T00:49:48.658Z,4.50
2017-12-27T00:52:16.362Z,4.50
2017-12-27T00:54:43.812Z,4.40
2017-12-27T00:57:11.377Z,4.40
2017-12-27T00:59:38.850Z,4.40
2017-12-27T01:02:06.289Z,4.40
2017-12-27T01:04:33.734Z,4.30
2017-12-27T01:07:01.223Z,4.30
2017-12-27T01:09:28.984Z,4.40
2017-12-27T01:11:56.430Z,4.40
2017-12-27T01:14:23.890Z,4.40
2017-12-27T01:16:51.552Z,4.30
2017-12-27T01:19:19.024Z,4.40
2017-12-27T01:21:47.513Z,4.30
2017-12-27T01:24:14.950Z,4.30
2017-12-27T01:26:42.415Z,4.30
2017-12-27T01:29:10.171Z,4.20
2017-12-27T01:31:37.636Z,4.20
2017-12-27T01:34:05.075Z,4.20
2017-12-27T01:36:32.555Z,4.20
2017-12-27T01:39:00.606Z,4.10
2017-12-27T01:41:28.272Z,4.10
2017-12-27T01:43:56.027Z,4.10
2017-12-27T01:46:23.464Z,4.00
2017-12-27T01:48:50.927Z,4.10
2017-12-27T01:51:18.362Z,4.10
2017-12-27T01:53:45.874Z,4.20
2017-12-27T01:56:13.307Z,4.10
2017-12-27T01:58:41.062Z,4.10
2017-12-27T02:01:08.515Z,4.30
2017-12-27T02:03:36.902Z,4.10
2017-12-27T02:06:04.344Z,4.10
2017-12-27T02:08:31.803Z,4.10
2017-12-27T02:10:59.243Z,4.10
2017-12-27T02:13:26.678Z,4.10
2017-12-27T02:15:54.137Z,4.20
2017-12-27T02:18:21.583Z,4.20
2017-12-27T02:20:49.025Z,4.10
2017-12-27T02:23:16.459Z,4.10
2017-12-27T02:25:43.890Z,4.10
2017-12-27T02:28:11.330Z,4.10
2017-12-27T02:30:38.904Z,4.10
2017-12-27T02:33:07.122Z,4.00
2017-12-27T02:35:34.886Z,4.00
2017-12-27T02:38:02.359Z,4.00
2017-12-27T02:40:29.834Z,4.00
2017-12-27T02:42:57.285Z,3.90
2017-12-27T02:45:24.735Z,3.90
2017-12-27T02:47:52.202Z,3.90
2017-12-27T02:50:20.474Z,3.80
2017-12-27T02:52:48.677Z,3.80
2017-12-27T02:55:16.105Z,3.80
2017-12-27T02:57:44.326Z,3.90
2017-12-27T03:00:11.779Z,3.90
2017-12-27T03:02:39.234Z,3.90
2017-12-27T03:05:06.653Z,3.90
2017-12-27T03:07:34.871Z,3.80
2017-12-27T03:10:02.332Z,3.80
2017-12-27T03:12:29.770Z,3.80
2017-12-27T03:14:57.211Z,3.90
2017-12-27T03:17:25.415Z,3.90
2017-12-27T03:19:52.844Z,3.90
2017-12-27T03:22:21.052Z,4.00
2017-12-27T03:24:48.507Z,4.00
2017-12-27T03:27:15.954Z,4.00
2017-12-27T03:29:43.392Z,4.10
2017-12-27T03:32:11.617Z,4.10
2017-12-27T03:34:39.057Z,4.00
2017-12-27T03:37:06.521Z,4.10
2017-12-27T03:39:33.985Z,4.20
2017-12-27T03:42:01.426Z,4.20
2017-12-27T03:44:28.873Z,4.20
2017-12-27T03:46:56.307Z,4.30
2017-12-27T03:49:24.525Z,4.30
2017-12-27T03:51:51.962Z,4.30
2017-12-27T03:54:19.403Z,4.30
2017-12-27T03:56:46.842Z,4.30
2017-12-27T03:59:15.070Z,4.40
2017-12-27T04:01:42.517Z,4.30
2017-12-27T04:04:09.992Z,4.40
2017-12-27T04:06:37.393Z,4.40
2017-12-27T04:09:05.603Z,4.40
2017-12-27T04:11:33.034Z,4.40
2017-12-27T04:14:00.491Z,4.50
2017-12-27T04:16:27.926Z,4.50
2017-12-27T04:18:55.386Z,4.40
2017-12-27T04:21:22.816Z,4.50
2017-12-27T04:23:50.246Z,4.50
2017-12-27T04:26:17.682Z,4.50
2017-12-27T04:28:45.118Z,4.50
2017-12-27T04:31:13.319Z,4.50
2017-12-27T04:33:40.753Z,4.50
2017-12-27T04:36:08.970Z,4.60
2017-12-27T04:38:36.413Z,4.60
2017-12-27T04:41:03.839Z,4.60
2017-12-27T04:43:32.044Z,4.70
2017-12-27T04:45:59.483Z,4.60
2017-12-27T04:48:26.918Z,4.70
2017-12-27T04:50:55.122Z,4.60
2017-12-27T04:53:22.558Z,4.60
2017-12-27T04:55:50.760Z,4.70
2017-12-27T04:58:18.190Z,4.70
2017-12-27T05:00:46.392Z,4.80
2017-12-27T05:03:13.819Z,4.70
2017-12-27T05:05:42.020Z,4.70
2017-12-27T05:08:09.455Z,4.70
2017-12-27T05:10:37.655Z,4.70
2017-12-27T05:13:05.093Z,4.70
2017-12-27T05:15:32.534Z,4.70
2017-12-27T05:18:00.761Z,4.60
2017-12-27T05:20:28.190Z,4.60
2017-12-27T05:22:55.626Z,4.70
2017-12-27T05:25:23.823Z,4.60
2017-12-27T05:27:51.278Z,4.60
2017-12-27T05:30:18.709Z,4.60
2017-12-27T05:32:46.915Z,4.60
2017-12-27T05:35:14.372Z,4.60
2017-12-27T05:37:41.781Z,4.60
2017-12-27T05:40:09.218Z,4.70
2017-12-27T05:42:36.669Z,4.70
2017-12-27T05:45:04.131Z,4.70
2017-12-27T05:47:31.557Z,4.80
2017-12-27T05:49:58.998Z,4.80
2017-12-27T05:52:26.426Z,4.80
2017-12-27T05:54:53.878Z,4.80
2017-12-27T05:57:21.306Z,4.80
2017-12-27T05:59:48.750Z,4.90
2017-12-27T06:02:16.175Z,4.80
2017-12-27T06:04:44.398Z,4.90
2017-12-27T06:07:11.834Z,4.90
2017-12-27T06:09:39.269Z,4.90
2017-12-27T06:12:06.702Z,4.80
2017-12-27T06:14:34.138Z,4.90
2017-12-27T06:17:01.591Z,4.90
2017-12-27T06:19:29.027Z,4.90
2017-12-27T06:21:56.463Z,4.80
2017-12-27T06:24:24.681Z,4.80
2017-12-27T06:26:52.108Z,4.80
2017-12-27T06:29:19.575Z,4.90
2017-12-27T06:31:47.010Z,4.90
2017-12-27T06:34:14.445Z,4.90
2017-12-27T06:36:42.638Z,5.00
2017-12-27T06:39:10.090Z,5.00
2017-12-27T06:41:37.514Z,5.00
2017-12-27T06:44:04.970Z,5.00
2017-12-27T06:46:32.398Z,5.00
2017-12-27T06:48:59.849Z,5.00
2017-12-27T06:51:27.286Z,5.10
2017-12-27T06:53:54.746Z,5.10
2017-12-27T06:56:22.170Z,5.10
2017-12-27T06:58:50.374Z,5.20
2017-12-27T07:01:17.801Z,5.20
2017-12-27T07:03:46.010Z,5.20
2017-12-27T07:06:13.437Z,5.10
2017-12-27T07:08:40.882Z,5.20
2017-12-27T07:11:09.097Z,5.20
2017-12-27T07:13:36.548Z,5.20
2017-12-27T07:16:03.998Z,5.20
2017-12-27T07:18:32.162Z,5.30
2017-12-27T07:20:59.598Z,5.20
2017-12-27T07:23:27.798Z,5.30
2017-12-27T07:25:55.246Z,5.30
2017-12-27T07:28:23.443Z,5.20
2017-12-27T07:30:50.883Z,5.20
2017-12-27T07:33:18.336Z,5.30
2017-12-27T07:35:46.546Z,5.30
2017-12-27T07:38:14.006Z,5.30
2017-12-27T07:40:41.454Z,5.30
2017-12-27T07:43:08.897Z,5.30
2017-12-27T07:45:36.359Z,5.30
2017-12-27T07:48:03.793Z,5.30
2017-12-27T07:50:32.010Z,5.30
2017-12-27T07:52:59.450Z,5.30
2017-12-27T07:55:26.882Z,5.30
2017-12-27T07:57:54.328Z,5.40
2017-12-27T08:00:22.522Z,5.40
2017-12-27T08:02:49.979Z,5.40
2017-12-27T08:05:17.430Z,5.40
2017-12-27T08:07:45.619Z,5.40
2017-12-27T08:10:13.063Z,5.40
2017-12-27T08:12:40.508Z,5.40
2017-12-27T08:15:08.722Z,5.30
2017-12-27T08:17:36.169Z,5.30
2017-12-27T08:20:03.625Z,5.30
2017-12-27T08:22:31.054Z,5.30
2017-12-27T08:24:59.269Z,5.30
2017-12-27T08:27:26.717Z,5.20
2017-12-27T08:29:54.154Z,5.20
2017-12-27T08:32:21.588Z,5.10
2017-12-27T08:34:49.791Z,5.10
2017-12-27T08:37:17.218Z,5.10
2017-12-27T08:39:45.422Z,5.10
2017-12-27T08:42:12.850Z,5.10
2017-12-27T08:44:41.049Z,5.20
2017-12-27T08:47:08.491Z,5.10
2017-12-27T08:49:36.695Z,5.20
2017-12-27T08:52:04.125Z,5.20
2017-12-27T08:54:32.326Z,5.20
2017-12-27T08:56:59.762Z,5.10
2017-12-27T08:59:27.978Z,5.20
2017-12-27T09:01:55.402Z,5.20
2017-12-27T09:04:22.878Z,5.20
2017-12-27T09:06:50.310Z,5.10
2017-12-27T09:09:17.753Z,5.20
2017-12-27T09:11:45.958Z,5.20
2017-12-27T09:14:13.394Z,5.30
2017-12-27T09:16:40.850Z,5.20
2017-12-27T09:19:09.043Z,5.30
2017-12-27T09:21:36.490Z,5.30
2017-12-27T09:24:03.921Z,5.30
2017-12-27T09:26:32.125Z,5.40
2017-12-27T09:28:59.550Z,5.30
2017-12-27T09:31:28.524Z,5.40
2017-12-27T09:33:55.980Z,5.40
2017-12-27T09:36:23.417Z,5.50
2017-12-27T09:38:50.851Z,5.50
2017-12-27T09:41:18.301Z,5.50
2017-12-27T09:43:45.737Z,5.60
2017-12-27T09:46:13.942Z,5.60
2017-12-27T09:48:41.446Z,5.60
2017-12-27T09:51:08.891Z,5.70
2017-12-27T09:53:36.322Z,5.70
2017-12-27T09:56:03.760Z,5.70
2017-12-27T09:58:31.194Z,5.80
2017-12-27T10:00:59.397Z,6.10
2017-12-27T10:03:26.829Z,6.10
2017-12-27T10:05:55.022Z,6.40
2017-12-27T10:08:22.458Z,6.40
2017-12-27T10:10:50.679Z,6.50
2017-12-27T10:13:18.106Z,6.50
2017-12-27T10:15:45.546Z,6.60
2017-12-27T10:18:13.754Z,6.70
2017-12-27T10:20:41.185Z,6.70
2017-12-27T10:23:08.622Z,6.70
2017-12-27T10:25:36.054Z,6.60
2017-12-27T10:28:03.486Z,6.60
2017-12-27T10:30:30.922Z,6.60
2017-12-27T10:32:59.257Z,6.60
2017-12-27T10:35:26.692Z,6.50
2017-12-27T10:37:54.115Z,6.50
2017-12-27T10:40:21.562Z,6.50
2017-12-27T10:42:49.054Z,6.50
2017-12-27T10:45:16.515Z,6.60
2017-12-27T10:47:43.969Z,6.60
2017-12-27T10:50:11.394Z,6.60
2017-12-27T10:52:38.834Z,6.60
2017-12-27T10:55:07.042Z,6.60
2017-12-27T10:57:34.470Z,6.60
2017-12-27T11:00:02.682Z,6.60
2017-12-27T11:02:30.110Z,6.50
2017-12-27T11:04:57.546Z,6.60
2017-12-27T11:07:25.759Z,6.60
2017-12-27T11:09:53.194Z,6.50
2017-12-27T11:12:21.419Z,6.50
2017-12-27T11:14:48.878Z,6.50
2017-12-27T11:17:16.318Z,6.50
2017-12-27T11:19:43.795Z,6.40
2017-12-27T11:22:11.270Z,6.30
2017-12-27T11:24:38.698Z,6.50
2017-12-27T11:27:06.149Z,6.50
2017-12-27T11:29:33.606Z,6.60
2017-12-27T11:32:01.056Z,6.50
2017-12-27T11:34:28.484Z,6.50
2017-12-27T11:36:55.926Z,6.50
2017-12-27T11:39:24.122Z,6.50
2017-12-27T11:41:51.563Z,6.50
2017-12-27T11:44:19.753Z,6.40
2017-12-27T11:46:47.206Z,6.40
2017-12-27T11:49:14.635Z,6.40
2017-12-27T11:51:42.070Z,6.40
2017-12-27T11:54:09.502Z,6.40
2017-12-27T11:56:36.944Z,6.40
2017-12-27T11:59:04.375Z,6.40
2017-12-27T12:01:32.579Z,6.40
2017-12-27T12:04:00.010Z,6.40
2017-12-27T12:06:28.214Z,6.40
2017-12-27T12:08:55.642Z,6.40
2017-12-27T12:11:23.846Z,6.50
2017-12-27T12:13:51.283Z,6.50
2017-12-27T12:16:18.734Z,6.50
2017-12-27T12:18:46.950Z,6.60
2017-12-27T12:21:15.200Z,6.60
2017-12-27T12:23:42.622Z,6.70
2017-12-27T12:26:10.851Z,6.70
2017-12-27T12:28:38.282Z,6.70
2017-12-27T12:31:05.728Z,6.70
2017-12-27T12:33:33.926Z,6.80
2017-12-27T12:36:01.366Z,6.70
2017-12-27T12:38:28.790Z,6.80
2017-12-27T12:40:56.226Z,6.70
2017-12-27T12:43:23.654Z,6.70
2017-12-27T12:45:51.105Z,6.70
2017-12-27T12:48:18.535Z,6.70
2017-12-27T12:50:46.766Z,6.70
2017-12-27T12:53:14.198Z,6.60
2017-12-27T12:55:41.643Z,6.70
2017-12-27T12:58:09.078Z,6.60
2017-12-27T13:00:37.273Z,6.60
2017-12-27T13:03:04.706Z,6.60
2017-12-27T13:05:32.916Z,6.60
2017-12-27T13:08:00.341Z,6.60
2017-12-27T13:10:28.558Z,6.70
2017-12-27T13:12:56.754Z,6.70
2017-12-27T13:15:24.201Z,6.70
2017-12-27T13:17:51.637Z,6.70
2017-12-27T13:20:19.070Z,6.70
2017-12-27T13:22:46.509Z,6.70
2017-12-27T13:25:14.706Z,6.70
2017-12-27T13:27:42.143Z,6.70
2017-12-27T13:30:10.338Z,6.60
2017-12-27T13:32:37.779Z,6.60
2017-12-27T13:35:05.981Z,6.70
2017-12-27T13:37:33.420Z,6.70
2017-12-27T13:40:01.619Z,6.70
2017-12-27T13:42:29.054Z,6.70
2017-12-27T13:44:56.481Z,6.80
2017-12-27T13:47:23.922Z,6.70
2017-12-27T13:49:51.367Z,6.70
2017-12-27T13:52:19.578Z,6.80
2017-12-27T13:54:47.773Z,6.80
2017-12-27T13:57:15.212Z,6.80
2017-12-27T13:59:43.408Z,6.80
2017-12-27T14:02:10.847Z,6.80
2017-12-27T14:04:39.051Z,6.90
2017-12-27T14:07:06.502Z,6.80
2017-12-27T14:09:33.950Z,6.90
2017-12-27T14:12:01.396Z,6.80
2017-12-27T14:14:29.585Z,6.80
2017-12-27T14:16:57.030Z,6.80
2017-12-27T14:19:25.214Z,6.70
2017-12-27T14:21:52.654Z,6.70
2017-12-27T14:24:20.877Z,6.70
2017-12-27T14:26:48.286Z,6.70
2017-12-27T14:29:16.487Z,6.80
2017-12-27T14:31:43.953Z,6.70
2017-12-27T14:34:11.365Z,6.90
2017-12-27T14:36:39.568Z,6.70
2017-12-27T14:39:07.000Z,6.70
2017-12-27T14:41:35.221Z,6.80
2017-12-27T14:44:02.655Z,6.80
2017-12-27T14:46:30.087Z,6.80
2017-12-27T14:48:58.295Z,6.80
2017-12-27T14:51:25.755Z,6.70
2017-12-27T14:53:53.180Z,6.80
2017-12-27T14:56:21.414Z,6.80
2017-12-27T14:58:48.845Z,6.80
2017-12-27T15:01:16.290Z,6.80
2017-12-27T15:03:43.728Z,6.80
2017-12-27T15:06:11.936Z,6.80
2017-12-27T15:08:39.353Z,6.70
2017-12-27T15:11:07.596Z,6.80
2017-12-27T15:13:35.034Z,6.70
2017-12-27T15:16:02.462Z,6.80
2017-12-27T15:18:29.903Z,6.80
2017-12-27T15:20:58.096Z,6.70
2017-12-27T15:23:25.569Z,6.70
2017-12-27T15:25:52.985Z,6.70
2017-12-27T15:28:21.196Z,6.70
2017-12-27T15:30:48.626Z,6.70
2017-12-27T15:33:16.846Z,6.80
2017-12-27T15:35:44.300Z,6.80
2017-12-27T15:38:11.750Z,6.70
2017-12-27T15:40:39.199Z,6.80
2017-12-27T15:43:06.646Z,6.80
2017-12-27T15:45:34.069Z,6.80
2017-12-27T15:48:02.310Z,6.80
2017-12-27T15:50:29.758Z,6.70
2017-12-27T15:52:57.206Z,6.80
2017-12-27T15:55:24.642Z,6.80
2017-12-27T15:57:52.854Z,6.90
2017-12-27T16:00:20.310Z,6.80
2017-12-27T16:02:47.766Z,6.90
2017-12-27T16:05:15.207Z,6.90
2017-12-27T16:07:42.645Z,6.90
2017-12-27T16:10:10.074Z,6.90
2017-12-27T16:12:38.291Z,6.90
2017-12-27T16:15:05.727Z,6.90
2017-12-27T16:17:33.167Z,6.90
2017-12-27T16:20:01.390Z,6.90
2017-12-27T16:22:28.829Z,6.90
2017-12-27T16:24:56.259Z,6.90
2017-12-27T16:27:24.466Z,6.90
2017-12-27T16:29:51.889Z,6.90
2017-12-27T16:32:20.095Z,6.80
2017-12-27T16:34:47.521Z,6.80
2017-12-27T16:37:15.726Z,6.70
2017-12-27T16:39:43.174Z,6.70
2017-12-27T16:42:10.624Z,6.80
2017-12-27T16:44:38.080Z,6.80
2017-12-27T16:47:06.297Z,6.80
2017-12-27T16:49:33.729Z,6.80
2017-12-27T16:52:01.169Z,6.80
2017-12-27T16:54:28.597Z,6.70
2017-12-27T16:56:56.042Z,6.70
2017-12-27T16:59:23.474Z,6.70
2017-12-27T17:01:50.926Z,6.70
2017-12-27T17:04:18.378Z,6.60
2017-12-27T17:06:45.834Z,6.60
2017-12-27T17:09:13.260Z,6.60
2017-12-27T17:11:41.461Z,6.60
2017-12-27T17:14:08.938Z,6.60
2017-12-27T17:16:36.371Z,6.50
2017-12-27T17:19:03.839Z,6.50
2017-12-27T17:21:31.266Z,6.50
2017-12-27T17:23:58.701Z,6.50
2017-12-27T17:26:26.906Z,6.50
2017-12-27T17:28:54.345Z,6.50
2017-12-27T17:31:22.538Z,6.40
2017-12-27T17:33:49.978Z,6.40
2017-12-27T17:36:18.182Z,6.40
2017-12-27T17:38:45.638Z,6.40
2017-12-27T17:41:13.095Z,6.40
2017-12-27T17:43:40.552Z,6.40
2017-12-27T17:46:07.982Z,6.40
2017-12-27T17:48:36.182Z,6.30
2017-12-27T17:51:03.641Z,6.30
2017-12-27T17:53:31.107Z,6.30
2017-12-27T17:55:59.448Z,6.30
2017-12-27T17:58:27.648Z,6.20
2017-12-27T18:00:55.101Z,6.20
2017-12-27T18:03:22.544Z,6.20
2017-12-27T18:05:49.966Z,6.10
2017-12-27T18:08:17.406Z,6.10
2017-12-27T18:10:44.843Z,6.10
2017-12-27T18:13:12.289Z,6.10
2017-12-27T18:15:39.735Z,6.10
2017-12-27T18:18:07.170Z,6.00
2017-12-27T18:20:35.362Z,6.00
2017-12-27T18:23:02.803Z,6.00
2017-12-27T18:25:31.009Z,5.90
2017-12-27T18:27:58.464Z,5.90
2017-12-27T18:30:25.899Z,5.90
2017-12-27T18:32:53.344Z,5.80
2017-12-27T18:35:21.545Z,5.70
2017-12-27T18:37:48.983Z,5.70
2017-12-27T18:40:17.174Z,5.50
2017-12-27T18:42:44.629Z,5.50
2017-12-27T18:45:12.066Z,5.40
2017-12-27T18:47:40.316Z,5.20
2017-12-27T18:50:07.756Z,5.20
2017-12-27T18:52:35.202Z,5.20
2017-12-27T18:55:02.632Z,5.20
2017-12-27T18:57:30.072Z,5.30
2017-12-27T18:59:58.273Z,5.30
2017-12-27T19:02:25.755Z,5.30
2017-12-27T19:04:53.197Z,5.30
2017-12-27T19:07:20.626Z,5.30
2017-12-27T19:09:48.071Z,5.20
2017-12-27T19:12:16.295Z,5.00
2017-12-27T19:14:43.732Z,4.90
2017-12-27T19:17:11.161Z,4.90
2017-12-27T19:19:39.362Z,4.90
2017-12-27T19:22:06.795Z,4.90
2017-12-27T19:24:35.007Z,5.00
2017-12-27T19:27:02.438Z,4.90
2017-12-27T19:29:29.914Z,4.90
2017-12-27T19:31:57.344Z,4.70
2017-12-27T19:34:25.548Z,4.60
2017-12-27T19:36:53.001Z,4.60
2017-12-27T19:39:20.449Z,4.50
2017-12-27T19:41:47.898Z,4.50
2017-12-27T19:44:15.338Z,4.60
2017-12-27T19:46:43.530Z,4.60
2017-12-27T19:49:10.974Z,4.60
2017-12-27T19:51:39.171Z,4.60
2017-12-27T19:54:06.608Z,4.60
2017-12-27T19:56:34.801Z,4.50
2017-12-27T19:59:02.243Z,4.50
2017-12-27T20:01:29.678Z,4.50
2017-12-27T20:03:57.917Z,4.20
2017-12-27T20:06:25.354Z,4.20
2017-12-27T20:08:52.794Z,4.10
2017-12-27T20:11:20.227Z,4.00
2017-12-27T20:13:48.438Z,3.90
2017-12-27T20:16:15.874Z,3.90
2017-12-27T20:18:43.306Z,3.90
2017-12-27T20:21:11.506Z,3.90
2017-12-27T20:23:38.934Z,3.90
2017-12-27T20:26:06.380Z,3.90
2017-12-27T20:28:33.818Z,3.90
2017-12-27T20:31:01.253Z,3.70
2017-12-27T20:33:28.686Z,3.70
2017-12-27T20:35:56.116Z,3.60
2017-12-27T20:38:23.558Z,3.50
2017-12-27T20:40:51.004Z,3.40
2017-12-27T20:43:18.454Z,3.20
2017-12-27T20:45:45.895Z,3.10
2017-12-27T20:48:13.349Z,3.00
2017-12-27T20:50:40.779Z,2.90
2017-12-27T20:53:08.977Z,2.90
2017-12-27T20:55:36.401Z,2.90
2017-12-27T20:58:04.604Z,2.90
2017-12-27T21:00:32.042Z,2.90
2017-12-27T21:03:00.239Z,2.90
2017-12-27T21:05:27.674Z,2.90
2017-12-27T21:07:55.119Z,2.90
2017-12-27T21:10:23.327Z,2.70
2017-12-27T21:12:50.758Z,2.70
2017-12-27T21:15:18.965Z,2.30
2017-12-27T21:17:46.390Z,2.30
2017-12-27T21:20:14.613Z,2.10
2017-12-27T21:22:42.046Z,2.00
2017-12-27T21:25:09.489Z,2.00
2017-12-27T21:27:36.944Z,1.90
2017-12-27T21:30:04.394Z,1.90
2017-12-27T21:32:31.822Z,1.90
2017-12-27T21:34:59.262Z,1.90
2017-12-27T21:37:26.695Z,2.00
2017-12-27T21:39:54.146Z,2.00
2017-12-27T21:42:21.579Z,2.00
2017-12-27T21:44:49.857Z,2.10
2017-12-27T22:00:50.302Z,2.20
2017-12-27T22:03:17.738Z,2.20
2017-12-27T22:05:45.222Z,2.30
2017-12-27T22:08:12.687Z,2.40
2017-12-27T22:10:40.121Z,2.50
2017-12-27T22:13:07.553Z,2.50
2017-12-27T22:15:35.762Z,2.60
2017-12-27T22:18:03.216Z,2.50
2017-12-27T22:20:36.300Z,2.50
2017-12-27T22:23:04.495Z,2.60
2017-12-27T22:25:31.931Z,2.60
2017-12-27T22:27:59.361Z,2.60
2017-12-27T22:30:27.570Z,2.70
2017-12-27T22:32:55.018Z,2.70
2017-12-27T22:35:22.458Z,2.90
2017-12-27T22:37:49.891Z,3.10
2017-12-27T22:40:17.326Z,3.20
2017-12-27T22:42:44.749Z,3.30
2017-12-27T22:45:12.204Z,3.40
2017-12-27T22:47:39.633Z,3.40
2017-12-27T22:50:07.851Z,3.60
2017-12-27T22:52:35.290Z,3.60
2017-12-27T22:55:02.734Z,3.70
2017-12-27T22:57:30.178Z,3.70
2017-12-27T22:59:58.377Z,3.90
2017-12-27T23:02:25.806Z,3.90
2017-12-27T23:04:54.015Z,4.10
2017-12-27T23:07:21.446Z,4.10
2017-12-27T23:09:48.890Z,4.20
2017-12-27T23:12:17.086Z,4.30
2017-12-27T23:14:44.535Z,4.30
2017-12-27T23:17:11.962Z,4.30
2017-12-27T23:19:39.403Z,4.40
2017-12-27T23:22:06.838Z,4.50
2017-12-27T23:24:34.269Z,4.60
2017-12-27T23:27:01.698Z,4.60
2017-12-27T23:29:29.905Z,4.60
2017-12-27T23:31:57.333Z,4.50
2017-12-27T23:34:25.542Z,4.60
2017-12-27T23:36:52.993Z,4.60
2017-12-27T23:39:20.422Z,4.60
2017-12-27T23:41:48.618Z,4.70
2017-12-27T23:44:16.054Z,4.60
2017-12-27T23:46:44.250Z,4.60
2017-12-27T23:49:12.465Z,4.60
2017-12-27T23:51:39.892Z,4.60
2017-12-27T23:54:07.322Z,4.50
2017-12-27T23:56:35.530Z,4.50
2017-12-27T23:59:02.972Z,4.40
